Time;durP1;ratioP1;P1;durP2;ratioP2;P2;SDS_P1;SDS_P2;PMS_P1;PMS_P2;Temp;Humidity;BMP_temperature;BMP_pressure;BME280_temperature;BME280_humidity;BME280_pressure;Samples;Min_cycle;Max_cycle;Signal;HPM_P1;HPM_P2
2023/06/19 00:02:20;;;;;;;4.90;4.50;;;19.70;99.90;;;;;;5073779;28;20235;-64
2023/06/19 00:04:46;;;;;;;4.20;3.90;;;19.70;99.90;;;;;;5073575;28;20173;-67
2023/06/19 00:07:12;;;;;;;6.75;4.75;;;19.70;99.90;;;;;;5073589;28;20801;-64
2023/06/19 00:09:37;;;;;;;4.97;4.57;;;19.70;99.90;;;;;;5073588;28;20177;-64
2023/06/19 00:12:04;;;;;;;5.30;4.35;;;19.70;99.90;;;;;;5073558;28;20542;-64
2023/06/19 00:14:29;;;;;;;5.60;4.50;;;19.70;99.90;;;;;;5073528;28;20171;-65
2023/06/19 00:16:56;;;;;;;5.40;4.05;;;19.70;99.90;;;;;;5073469;28;20168;-63
2023/06/19 00:19:22;;;;;;;4.70;4.22;;;19.70;99.90;;;;;;5073212;28;20187;-65
2023/06/19 00:21:48;;;;;;;4.55;4.05;;;19.70;99.90;;;;;;5055864;28;20628;-64
2023/06/19 00:24:13;;;;;;;7.75;4.07;;;19.70;99.90;;;;;;5073259;28;20169;-64
2023/06/19 00:26:40;;;;;;;4.70;4.23;;;19.70;99.90;;;;;;5072876;28;20200;-64
2023/06/19 00:29:06;;;;;;;4.28;3.90;;;19.60;99.90;;;;;;5073539;28;20175;-65
2023/06/19 00:31:32;;;;;;;7.28;4.18;;;19.50;99.90;;;;;;5073055;28;20196;-63
2023/06/19 00:33:58;;;;;;;4.10;3.80;;;19.50;99.90;;;;;;5054850;28;20233;-64
2023/06/19 00:36:25;;;;;;;6.43;4.30;;;19.40;99.90;;;;;;5072786;28;20258;-64
2023/06/19 00:38:51;;;;;;;4.93;4.53;;;19.40;99.90;;;;;;5073200;28;20263;-65
2023/06/19 00:41:17;;;;;;;4.60;4.07;;;19.40;99.90;;;;;;5073202;28;20206;-64
2023/06/19 00:43:43;;;;;;;5.55;3.60;;;19.40;99.90;;;;;;5073098;28;20164;-64
2023/06/19 00:46:10;;;;;;;4.17;3.87;;;19.30;99.90;;;;;;5073021;28;20239;-64
2023/06/19 00:48:36;;;;;;;4.30;3.90;;;19.30;99.90;;;;;;5072783;28;20207;-65
2023/06/19 00:51:01;;;;;;;4.93;4.10;;;19.40;99.90;;;;;;5073153;28;20164;-64
2023/06/19 00:53:27;;;;;;;4.33;3.93;;;19.40;99.90;;;;;;5073084;28;20179;-64
2023/06/19 00:55:55;;;;;;;5.78;4.03;;;19.40;99.90;;;;;;5073048;28;20169;-62
2023/06/19 00:58:21;;;;;;;4.23;3.90;;;19.40;99.90;;;;;;5072898;28;20171;-65
2023/06/19 01:00:48;;;;;;;4.50;4.10;;;19.40;99.90;;;;;;5072844;28;20655;-65
2023/06/19 01:03:14;;;;;;;3.77;3.53;;;19.40;99.90;;;;;;5072734;28;20184;-65
2023/06/19 01:05:40;;;;;;;5.13;4.63;;;19.40;99.90;;;;;;5072878;28;20198;-64
2023/06/19 01:08:43;;;;;;;4.70;4.00;;;19.40;99.90;;;;;;5073296;28;20264;-65
2023/06/19 01:11:11;;;;;;;4.72;4.20;;;19.40;99.90;;;;;;5072853;28;20175;-64
2023/06/19 01:13:48;;;;;;;5.65;4.43;;;19.50;99.90;;;;;;5072836;28;20248;-64
2023/06/19 01:16:14;;;;;;;4.63;4.20;;;19.50;99.90;;;;;;5072765;28;20161;-65
2023/06/19 01:18:40;;;;;;;4.68;4.28;;;19.50;99.90;;;;;;5072840;28;20177;-64
2023/06/19 01:21:13;;;;;;;5.05;4.50;;;19.50;99.90;;;;;;5072688;28;20663;-64
2023/06/19 01:23:40;;;;;;;5.55;4.10;;;19.50;99.90;;;;;;5072773;28;20639;-66
2023/06/19 01:26:07;;;;;;;5.00;4.50;;;19.50;99.90;;;;;;5073001;28;20290;-65
2023/06/19 01:28:33;;;;;;;4.80;4.40;;;19.50;99.90;;;;;;5072723;28;20635;-64
2023/06/19 01:31:01;;;;;;;5.20;4.45;;;19.50;99.90;;;;;;5072153;28;20184;-65
2023/06/19 01:33:29;;;;;;;5.80;4.77;;;19.50;99.90;;;;;;5072744;28;20169;-64
2023/06/19 01:35:56;;;;;;;4.60;4.10;;;19.50;99.90;;;;;;5072337;28;20168;-65
2023/06/19 01:38:25;;;;;;;5.22;4.72;;;19.50;99.90;;;;;;5075286;28;20180;-64
2023/06/19 01:40:54;;;;;;;4.40;4.10;;;19.40;99.90;;;;;;5076360;28;20165;-64
2023/06/19 01:43:20;;;;;;;5.85;4.53;;;19.50;99.90;;;;;;5076388;28;20173;-64
2023/06/19 01:45:45;;;;;;;4.63;4.32;;;19.50;99.90;;;;;;5075801;28;20175;-65
2023/06/19 01:48:12;;;;;;;7.80;4.80;;;19.50;99.90;;;;;;5076172;28;20160;-64
2023/06/19 01:50:38;;;;;;;5.30;4.27;;;19.50;99.90;;;;;;5076134;28;20165;-65
2023/06/19 01:53:03;;;;;;;5.45;4.95;;;19.60;99.90;;;;;;5076081;28;20670;-65
2023/06/19 01:55:29;;;;;;;7.22;4.78;;;19.60;99.90;;;;;;5076256;28;20165;-65
2023/06/19 01:57:54;;;;;;;5.32;4.90;;;19.60;99.90;;;;;;5076049;28;20192;-64
2023/06/19 02:00:20;;;;;;;6.03;5.53;;;19.60;99.90;;;;;;5075834;28;20169;-63
2023/06/19 02:02:46;;;;;;;5.95;5.00;;;19.60;99.90;;;;;;5076056;28;20167;-64
2023/06/19 02:05:11;;;;;;;6.10;5.40;;;19.60;99.90;;;;;;5075793;28;20548;-64
2023/06/19 02:07:37;;;;;;;6.03;5.53;;;19.50;99.90;;;;;;5075656;28;20236;-65
2023/06/19 02:10:04;;;;;;;7.03;5.38;;;19.60;99.90;;;;;;5075829;28;20164;-63
2023/06/19 02:12:30;;;;;;;6.00;5.40;;;19.60;99.90;;;;;;5075879;28;20654;-64
2023/06/19 02:14:55;;;;;;;6.22;5.70;;;19.70;99.90;;;;;;5075488;28;20250;-64
2023/06/19 02:17:21;;;;;;;6.60;5.45;;;19.70;99.90;;;;;;5075741;28;20178;-64
2023/06/19 02:19:47;;;;;;;5.90;5.35;;;19.80;99.90;;;;;;5075586;28;20247;-64
2023/06/19 02:22:13;;;;;;;6.13;5.53;;;19.70;99.90;;;;;;5075439;28;20172;-64
2023/06/19 02:24:39;;;;;;;6.70;5.93;;;19.60;99.90;;;;;;5075669;28;20171;-64
2023/06/19 02:27:05;;;;;;;7.70;6.38;;;19.60;99.90;;;;;;5075445;28;20208;-64
2023/06/19 02:29:33;;;;;;;9.50;5.70;;;19.60;99.90;;;;;;5075262;28;20187;-64
2023/06/19 02:31:59;;;;;;;7.55;5.50;;;19.60;99.90;;;;;;5075330;28;20593;-64
2023/06/19 02:34:25;;;;;;;6.10;5.50;;;19.70;99.90;;;;;;5075601;28;20165;-64
2023/06/19 02:36:50;;;;;;;7.75;6.25;;;19.60;99.90;;;;;;5074858;28;20231;-64
2023/06/19 02:39:18;;;;;;;7.45;5.43;;;19.80;99.90;;;;;;5075337;28;20219;-65
2023/06/19 02:41:45;;;;;;;9.55;6.10;;;19.80;99.90;;;;;;5075341;28;20252;-64
2023/06/19 02:44:11;;;;;;;7.03;6.43;;;19.90;99.90;;;;;;5075079;28;20157;-64
2023/06/19 02:46:37;;;;;;;5.93;5.28;;;19.90;99.90;;;;;;5075221;28;20234;-65
2023/06/19 02:49:03;;;;;;;7.67;5.77;;;19.80;99.90;;;;;;5074789;28;20165;-65
2023/06/19 02:51:29;;;;;;;6.57;5.95;;;19.80;99.90;;;;;;5074925;28;20169;-64
2023/06/19 02:53:54;;;;;;;8.25;6.35;;;19.80;99.90;;;;;;5075022;28;20323;-64
2023/06/19 02:56:20;;;;;;;6.57;5.88;;;19.80;99.90;;;;;;5074831;28;20165;-64
2023/06/19 02:58:45;;;;;;;7.65;6.47;;;19.80;99.90;;;;;;5074429;28;20689;-65
2023/06/19 03:01:11;;;;;;;6.72;6.03;;;19.80;99.90;;;;;;5074970;28;20177;-64
2023/06/19 03:03:37;;;;;;;6.63;6.03;;;19.90;99.90;;;;;;5074845;28;20175;-64
2023/06/19 03:06:07;;;;;;;7.63;6.38;;;20.00;99.90;;;;;;5074649;28;20204;-65
2023/06/19 03:08:34;;;;;;;7.63;6.93;;;19.90;99.90;;;;;;5074638;28;20176;-65
2023/06/19 03:11:00;;;;;;;8.13;7.28;;;19.90;99.90;;;;;;5074777;28;20164;-63
2023/06/19 03:13:25;;;;;;;9.13;7.82;;;19.80;99.90;;;;;;5074458;28;20578;-63
2023/06/19 03:15:51;;;;;;;9.88;7.85;;;19.80;99.90;;;;;;5074621;28;20663;-64
2023/06/19 03:18:16;;;;;;;8.98;7.53;;;19.80;99.90;;;;;;5074186;28;20505;-65
2023/06/19 03:20:42;;;;;;;10.85;8.60;;;19.80;99.90;;;;;;5074105;28;20631;-65
2023/06/19 03:23:08;;;;;;;13.02;8.82;;;19.70;99.90;;;;;;5074562;28;20169;-64
2023/06/19 03:25:34;;;;;;;9.90;8.80;;;19.80;99.90;;;;;;5074168;28;20494;-64
2023/06/19 03:28:04;;;;;;;8.88;8.10;;;19.80;99.90;;;;;;5073773;28;20223;-64
2023/06/19 03:30:30;;;;;;;9.32;7.60;;;19.80;99.90;;;;;;5074186;28;20199;-64
2023/06/19 03:32:55;;;;;;;9.40;6.90;;;19.80;99.90;;;;;;5073846;28;20171;-64
2023/06/19 03:35:21;;;;;;;9.95;7.38;;;19.80;99.90;;;;;;5073967;28;20165;-65
2023/06/19 03:37:47;;;;;;;8.32;7.50;;;19.70;99.90;;;;;;5073713;28;20217;-65
2023/06/19 03:40:13;;;;;;;8.43;7.50;;;19.70;99.90;;;;;;5073952;28;20172;-65
2023/06/19 03:42:40;;;;;;;8.18;7.07;;;19.70;99.90;;;;;;5073791;28;20180;-64
2023/06/19 03:45:06;;;;;;;8.80;8.00;;;19.60;99.90;;;;;;5073586;28;20668;-65
2023/06/19 03:47:32;;;;;;;9.57;7.97;;;19.40;99.90;;;;;;5073299;28;20226;-65
2023/06/19 03:49:57;;;;;;;8.60;7.70;;;19.40;99.90;;;;;;5073895;28;20680;-64
2023/06/19 03:52:23;;;;;;;9.80;8.82;;;19.40;99.90;;;;;;5073427;28;20264;-64
2023/06/19 03:54:49;;;;;;;10.82;8.57;;;19.40;99.90;;;;;;5073241;28;20172;-65
2023/06/19 03:57:15;;;;;;;12.10;8.25;;;19.30;99.90;;;;;;5073135;28;20230;-65
2023/06/19 03:59:40;;;;;;;8.93;8.13;;;19.40;99.90;;;;;;5072822;28;20168;-64
2023/06/19 04:02:06;;;;;;;9.00;7.90;;;19.40;99.90;;;;;;5073276;28;20183;-64
2023/06/19 04:04:31;;;;;;;10.80;7.97;;;19.40;99.90;;;;;;5073259;28;20176;-64
2023/06/19 04:06:59;;;;;;;9.18;8.27;;;19.30;99.90;;;;;;5073127;28;20671;-64
2023/06/19 04:09:24;;;;;;;9.60;7.80;;;19.30;99.90;;;;;;5073373;28;20194;-65
2023/06/19 04:11:50;;;;;;;10.55;7.40;;;19.30;99.90;;;;;;5072783;28;20168;-64
2023/06/19 04:14:16;;;;;;;8.20;7.20;;;19.20;99.90;;;;;;5073115;28;20164;-64
2023/06/19 04:16:41;;;;;;;8.50;7.65;;;19.20;99.90;;;;;;5072972;28;20168;-64
2023/06/19 04:19:07;;;;;;;7.63;6.82;;;19.10;99.90;;;;;;5073385;28;20634;-64
2023/06/19 04:21:33;;;;;;;7.38;6.78;;;19.10;99.90;;;;;;5073006;28;20169;-65
2023/06/19 04:23:58;;;;;;;8.43;7.20;;;19.10;99.90;;;;;;5073112;28;20204;-65
2023/06/19 04:26:24;;;;;;;7.57;6.97;;;19.10;99.90;;;;;;5072675;28;20227;-64
2023/06/19 04:28:50;;;;;;;7.35;6.65;;;19.20;99.90;;;;;;5073016;28;20172;-64
2023/06/19 04:31:18;;;;;;;7.55;6.82;;;19.30;99.90;;;;;;5072672;28;20295;-65
2023/06/19 04:33:45;;;;;;;7.03;6.32;;;19.50;99.90;;;;;;5072578;28;20172;-65
2023/06/19 04:36:10;;;;;;;7.35;6.00;;;19.90;99.90;;;;;;5072448;28;20169;-64
2023/06/19 04:38:36;;;;;;;8.88;6.38;;;20.40;90.70;;;;;;5073077;28;20206;-65
2023/06/19 04:41:02;;;;;;;8.82;6.82;;;21.00;74.00;;;;;;5072405;28;20524;-65
2023/06/19 04:43:27;;;;;;;7.88;7.18;;;21.50;44.60;;;;;;5072658;28;20176;-65
2023/06/19 04:45:53;;;;;;;9.23;7.57;;;21.90;31.10;;;;;;5072212;28;20223;-65
2023/06/19 04:48:19;;;;;;;9.13;7.60;;;22.20;23.40;;;;;;5073087;28;20168;-66
2023/06/19 04:50:44;;;;;;;8.43;7.57;;;22.70;13.50;;;;;;5072468;28;20216;-66
2023/06/19 04:53:10;;;;;;;9.73;8.70;;;23.00;6.80;;;;;;5072544;28;20656;-65
2023/06/19 04:55:37;;;;;;;9.77;8.77;;;23.00;2.80;;;;;;5072492;28;20172;-66
2023/06/19 04:58:03;;;;;;;9.80;9.00;;;23.10;1.00;;;;;;5072415;28;20175;-67
2023/06/19 05:00:29;;;;;;;10.30;9.30;;;22.80;2.20;;;;;;5054450;28;20538;-66
2023/06/19 05:02:59;;;;;;;11.70;9.85;;;22.60;11.20;;;;;;5072773;28;20632;-65
2023/06/19 05:05:26;;;;;;;10.48;9.23;;;22.60;20.00;;;;;;5072569;28;20222;-65
2023/06/19 05:07:52;;;;;;;10.98;9.98;;;22.90;7.80;;;;;;5072091;28;20232;-65
2023/06/19 05:10:19;;;;;;;13.23;10.35;;;22.70;10.70;;;;;;5072129;28;20161;-66
2023/06/19 05:12:44;;;;;;;11.45;10.32;;;22.30;22.00;;;;;;5075539;28;20191;-66
2023/06/19 05:15:10;;;;;;;11.30;10.20;;;22.10;31.70;;;;;;5076475;28;20169;-65
2023/06/19 05:17:38;;;;;;;12.05;10.60;;;21.90;32.90;;;;;;5076578;28;20170;-66
2023/06/19 05:20:06;;;;;;;11.82;10.63;;;22.00;28.20;;;;;;5075863;28;20636;-64
2023/06/19 05:22:33;;;;;;;14.13;10.98;;;22.40;20.40;;;;;;5075712;28;20264;-66
2023/06/19 05:25:01;;;;;;;12.20;10.70;;;22.60;15.40;;;;;;5075643;28;20490;-67
2023/06/19 05:27:26;;;;;;;10.77;9.73;;;23.60;1.00;;;;;;5075590;28;20214;-66
2023/06/19 05:29:52;;;;;;;11.68;10.23;;;24.50;1.00;;;;;;5075279;28;20172;-66
2023/06/19 05:32:17;;;;;;;16.88;10.20;;;25.20;1.00;;;;;;5076099;28;20624;-66
2023/06/19 05:34:43;;;;;;;15.20;10.10;;;24.90;1.00;;;;;;5075572;28;20172;-66
2023/06/19 05:37:08;;;;;;;16.23;10.95;;;24.70;1.00;;;;;;5075313;28;20220;-65
2023/06/19 05:39:34;;;;;;;14.18;10.55;;;24.30;1.00;;;;;;5076281;28;20167;-65
2023/06/19 05:42:00;;;;;;;12.93;11.60;;;24.10;1.00;;;;;;5075029;28;20175;-66
2023/06/19 05:44:25;;;;;;;20.10;13.15;;;23.90;1.00;;;;;;5075432;28;20191;-66
2023/06/19 05:46:51;;;;;;;16.67;13.43;;;23.00;1.00;;;;;;5074590;28;20273;-67
2023/06/19 05:49:17;;;;;;;18.55;14.85;;;22.30;1.00;;;;;;5075063;28;20173;-65
2023/06/19 05:51:43;;;;;;;17.00;15.40;;;21.60;16.10;;;;;;5057068;28;20180;-66
2023/06/19 05:54:09;;;;;;;16.42;14.73;;;21.00;34.10;;;;;;5075552;28;20243;-66
2023/06/19 05:56:36;;;;;;;18.60;15.57;;;20.70;47.80;;;;;;5075341;28;20255;-65
2023/06/19 05:59:02;;;;;;;19.70;15.52;;;20.40;62.80;;;;;;5073998;28;20172;-65
2023/06/19 06:01:29;;;;;;;16.00;14.07;;;20.10;71.40;;;;;;5075061;28;20179;-66
2023/06/19 06:03:55;;;;;;;17.88;15.90;;;20.00;77.70;;;;;;5075173;28;20177;-64
2023/06/19 06:06:23;;;;;;;23.45;16.75;;;19.80;77.30;;;;;;5074113;28;20196;-66
2023/06/19 06:08:49;;;;;;;18.67;15.20;;;19.70;87.70;;;;;;5075514;28;20172;-66
2023/06/19 06:11:15;;;;;;;18.20;16.27;;;20.00;83.30;;;;;;5074571;28;20234;-65
2023/06/19 06:13:40;;;;;;;18.83;15.70;;;19.90;81.10;;;;;;5074953;28;20570;-65
2023/06/19 06:16:06;;;;;;;17.98;15.85;;;19.80;83.50;;;;;;5074297;28;20567;-65
2023/06/19 06:18:31;;;;;;;17.63;15.02;;;19.70;86.80;;;;;;5074602;28;20225;-65
2023/06/19 06:20:59;;;;;;;21.33;15.75;;;19.80;90.20;;;;;;5074690;28;20636;-65
2023/06/19 06:23:24;;;;;;;19.88;16.23;;;19.90;77.50;;;;;;5073942;28;20164;-65
2023/06/19 06:25:50;;;;;;;18.08;15.50;;;19.90;78.70;;;;;;5074855;28;20176;-65
2023/06/19 06:28:16;;;;;;;18.75;15.93;;;20.10;67.50;;;;;;5074550;28;20632;-65
2023/06/19 06:30:42;;;;;;;18.63;16.73;;;20.10;68.60;;;;;;5073794;28;20809;-65
2023/06/19 06:33:08;;;;;;;22.63;16.75;;;20.10;65.80;;;;;;5074602;28;20168;-64
2023/06/19 06:35:35;;;;;;;19.33;16.58;;;20.20;64.30;;;;;;5073590;28;20164;-65
2023/06/19 06:38:01;;;;;;;17.02;15.23;;;20.20;65.90;;;;;;5073942;28;20224;-65
2023/06/19 06:40:27;;;;;;;21.65;17.60;;;20.30;57.80;;;;;;5074043;28;20192;-65
2023/06/19 06:42:53;;;;;;;20.17;17.88;;;20.30;59.50;;;;;;5074524;28;20245;-65
2023/06/19 06:45:19;;;;;;;19.45;17.33;;;20.00;58.50;;;;;;5073889;28;20164;-65
2023/06/19 06:47:45;;;;;;;22.25;18.02;;;20.00;62.10;;;;;;5073634;28;20215;-65
2023/06/19 06:50:10;;;;;;;18.83;16.92;;;20.00;61.20;;;;;;5073654;28;20533;-66
2023/06/19 06:52:36;;;;;;;19.35;17.35;;;20.00;60.50;;;;;;5074221;28;20527;-64
2023/06/19 06:55:02;;;;;;;18.77;16.65;;;19.90;58.40;;;;;;5073704;28;20168;-66
2023/06/19 06:57:27;;;;;;;18.52;16.50;;;19.80;62.90;;;;;;5074145;28;20631;-65
2023/06/19 06:59:53;;;;;;;18.05;15.25;;;19.70;67.30;;;;;;5073381;28;20165;-67
2023/06/19 07:02:18;;;;;;;18.67;16.25;;;19.70;67.10;;;;;;5074434;28;20248;-67
2023/06/19 07:04:44;;;;;;;20.65;16.83;;;20.10;52.30;;;;;;5073706;28;20176;-66
2023/06/19 07:07:10;;;;;;;20.20;15.73;;;20.10;49.80;;;;;;5073884;28;20609;-66
2023/06/19 07:09:36;;;;;;;20.05;17.98;;;20.40;46.70;;;;;;5073643;28;20172;-67
2023/06/19 07:12:04;;;;;;;20.02;17.27;;;20.60;28.20;;;;;;5073910;28;20173;-66
2023/06/19 07:14:30;;;;;;;20.98;16.35;;;20.90;16.10;;;;;;5073743;28;20172;-65
2023/06/19 07:16:56;;;;;;;17.73;15.73;;;21.20;7.80;;;;;;5074049;28;20225;-66
2023/06/19 07:19:21;;;;;;;18.30;15.75;;;21.80;1.00;;;;;;5073377;28;20259;-66
2023/06/19 07:21:49;;;;;;;15.60;14.02;;;22.10;1.00;;;;;;5073774;28;20171;-67
2023/06/19 07:24:15;;;;;;;17.52;13.48;;;23.30;1.00;;;;;;5073625;28;20169;-67
2023/06/19 07:26:40;;;;;;;14.50;13.02;;;24.10;1.00;;;;;;5056081;28;20262;-67
2023/06/19 07:29:06;;;;;;;14.57;12.60;;;24.70;1.00;;;;;;5073900;28;20179;-67
2023/06/19 07:31:31;;;;;;;16.88;12.75;;;25.50;1.00;;;;;;5072808;28;20278;-65
2023/06/19 07:33:57;;;;;;;14.13;12.55;;;25.30;1.00;;;;;;5055385;28;20651;-66
2023/06/19 07:36:23;;;;;;;14.82;13.30;;;25.60;1.00;;;;;;5073460;28;20208;-66
2023/06/19 07:38:48;;;;;;;14.18;11.82;;;25.10;1.00;;;;;;5076170;28;20199;-67
2023/06/19 07:41:14;;;;;;;17.15;11.30;;;25.20;1.00;;;;;;5088945;28;20192;-66
2023/06/19 07:43:39;;;;;;;12.82;11.55;;;25.10;1.00;;;;;;5090101;28;20240;-66
2023/06/19 07:46:05;;;;;;;15.32;11.02;;;24.90;1.00;;;;;;5089413;28;20203;-66
2023/06/19 07:48:31;;;;;;;12.45;11.10;;;24.70;1.00;;;;;;5075239;28;20176;-66
2023/06/19 07:50:56;;;;;;;12.23;10.98;;;24.60;1.00;;;;;;5072998;28;20172;-66
2023/06/19 07:53:22;;;;;;;13.35;12.05;;;23.60;1.00;;;;;;5072908;28;20380;-65
2023/06/19 07:55:48;;;;;;;12.95;11.65;;;23.60;1.00;;;;;;5073044;28;20658;-65
2023/06/19 07:58:13;;;;;;;12.57;11.32;;;23.70;1.00;;;;;;5069581;28;20175;-66
2023/06/19 08:00:39;;;;;;;12.27;10.98;;;23.80;1.00;;;;;;5059646;28;20226;-66
2023/06/19 08:03:05;;;;;;;12.77;11.45;;;24.20;1.00;;;;;;5059200;28;20234;-68
2023/06/19 08:05:31;;;;;;;15.90;11.38;;;24.40;1.00;;;;;;5063950;28;20176;-67
2023/06/19 08:07:58;;;;;;;11.35;10.30;;;25.10;1.00;;;;;;5071771;28;20679;-68
2023/06/19 08:10:24;;;;;;;13.05;9.75;;;25.60;1.00;;;;;;5069608;28;20291;-68
2023/06/19 08:12:49;;;;;;;12.98;11.05;;;26.50;1.00;;;;;;5067542;28;20523;-68
2023/06/19 08:15:15;;;;;;;12.57;10.18;;;27.30;1.00;;;;;;5065916;28;20211;-67
2023/06/19 08:17:41;;;;;;;12.38;9.45;;;28.50;1.00;;;;;;5065530;28;20209;-69
2023/06/19 08:20:08;;;;;;;11.73;9.35;;;29.30;1.00;;;;;;5066277;28;20540;-67
2023/06/19 08:22:34;;;;;;;12.52;9.07;;;29.50;1.00;;;;;;5063958;28;20192;-68
2023/06/19 08:25:00;;;;;;;15.85;9.05;;;29.20;1.00;;;;;;5069640;28;20185;-67
2023/06/19 08:27:25;;;;;;;10.77;9.55;;;30.00;1.00;;;;;;5069272;28;20223;-67
2023/06/19 08:29:51;;;;;;;10.10;9.27;;;30.30;99.90;;;;;;5049372;28;22516;-68
2023/06/19 08:32:17;;;;;;;11.30;9.05;;;30.90;1.00;;;;;;5071783;28;20600;-69
2023/06/19 08:34:42;;;;;;;10.68;8.98;;;32.00;99.90;;;;;;5083213;28;20176;-68
2023/06/19 08:37:08;;;;;;;9.95;8.90;;;31.80;1.00;;;;;;5092290;28;20280;-68
2023/06/19 08:39:37;;;;;;;9.60;8.60;;;31.10;99.90;;;;;;5077063;28;20234;-68
2023/06/19 08:42:05;;;;;;;8.95;8.10;;;31.60;59.80;;;;;;5067618;28;20180;-68
2023/06/19 08:44:31;;;;;;;9.32;8.40;;;31.40;99.90;;;;;;5068271;28;20283;-69
2023/06/19 08:46:57;;;;;;;10.35;9.25;;;32.10;99.90;;;;;;5068441;28;20216;-67
2023/06/19 08:49:23;;;;;;;11.32;7.88;;;31.80;1.00;;;;;;5070235;28;20180;-68
2023/06/19 08:51:49;;;;;;;10.15;7.80;;;31.60;62.10;;;;;;5074703;28;20171;-68
2023/06/19 08:54:15;;;;;;;11.27;8.77;;;31.30;99.90;;;;;;5068705;28;20220;-68
2023/06/19 08:56:40;;;;;;;9.98;8.80;;;30.70;1.00;;;;;;5070044;28;20582;-68
2023/06/19 08:59:09;;;;;;;9.60;8.48;;;29.50;1.00;;;;;;5065652;28;20272;-67
2023/06/19 09:01:35;;;;;;;9.65;8.45;;;29.00;99.90;;;;;;5033869;28;20183;-67
2023/06/19 09:04:08;;;;;;;9.40;8.43;;;28.50;25.40;;;;;;5062871;28;20682;-68
2023/06/19 09:06:37;;;;;;;10.52;8.38;;;29.20;1.00;;;;;;5061645;28;20205;-67
2023/06/19 09:09:10;;;;;;;9.13;7.68;;;30.50;80.30;;;;;;5048120;28;20267;-68
2023/06/19 09:11:39;;;;;;;8.80;7.57;;;31.30;99.90;;;;;;5068949;28;20184;-67
2023/06/19 09:14:05;;;;;;;9.55;8.27;;;31.00;99.90;;;;;;5068784;28;20177;-68
2023/06/19 09:16:39;;;;;;;9.77;8.80;;;31.20;99.90;;;;;;5068815;28;20688;-67
2023/06/19 09:19:05;;;;;;;9.30;8.50;;;31.00;99.90;;;;;;5071722;28;20251;-68
2023/06/19 09:21:30;;;;;;;9.75;8.80;;;30.60;1.00;;;;;;5060780;28;20582;-68
2023/06/19 09:24:06;;;;;;;9.50;8.07;;;29.70;1.00;;;;;;5069924;28;20177;-68
2023/06/19 09:26:31;;;;;;;10.32;8.45;;;29.40;50.00;;;;;;5049430;28;20292;-67
2023/06/19 09:28:57;;;;;;;11.52;9.48;;;29.50;99.90;;;;;;5069336;28;20272;-66
2023/06/19 09:31:33;;;;;;;12.20;9.38;;;29.60;99.90;;;;;;5062867;28;20286;-67
2023/06/19 09:33:58;;;;;;;10.15;8.45;;;29.50;36.30;;;;;;5064073;28;20176;-69
2023/06/19 09:36:26;;;;;;;9.98;9.05;;;29.30;1.00;;;;;;5058975;28;20969;-68
2023/06/19 09:38:52;;;;;;;9.57;8.20;;;30.10;1.00;;;;;;5065063;28;20636;-67
2023/06/19 09:41:19;;;;;;;10.77;7.43;;;29.50;1.00;;;;;;5071051;28;20541;-67
2023/06/19 09:43:47;;;;;;;8.82;7.93;;;29.40;1.00;;;;;;5068099;28;20177;-67
2023/06/19 09:46:14;;;;;;;10.35;7.75;;;29.40;99.90;;;;;;5053140;28;20196;-66
2023/06/19 09:48:46;;;;;;;10.77;8.23;;;29.20;99.90;;;;;;5069668;28;20208;-67
2023/06/19 09:51:25;;;;;;;8.77;7.78;;;28.90;99.90;;;;;;5067136;28;20176;-67
2023/06/19 09:53:51;;;;;;;9.18;8.00;;;28.60;99.90;;;;;;5070517;28;20218;-65
2023/06/19 09:56:25;;;;;;;11.00;7.43;;;28.00;1.00;;;;;;5068799;28;20208;-67
2023/06/19 09:58:53;;;;;;;8.00;7.30;;;28.10;60.50;;;;;;5071992;28;20180;-67
2023/06/19 10:01:19;;;;;;;8.77;7.63;;;27.90;99.90;;;;;;5072528;28;20177;-67
2023/06/19 10:03:46;;;;;;;13.18;8.85;;;27.30;1.00;;;;;;5072751;28;20173;-67
2023/06/19 10:06:19;;;;;;;13.38;8.10;;;26.90;1.00;;;;;;5070961;28;20530;-68
2023/06/19 10:08:46;;;;;;;10.18;9.02;;;27.20;99.90;;;;;;5056837;28;20274;-66
2023/06/19 10:11:12;;;;;;;10.15;9.15;;;27.10;1.00;;;;;;5055311;28;20267;-67
2023/06/19 10:13:41;;;;;;;10.25;9.35;;;27.40;1.00;;;;;;5073851;28;20172;-66
2023/06/19 10:16:08;;;;;;;12.98;8.98;;;27.40;1.00;;;;;;5072273;28;20271;-67
2023/06/19 10:18:47;;;;;;;10.90;9.35;;;28.10;99.90;;;;;;5071990;28;20217;-67
2023/06/19 10:21:22;;;;;;;10.05;8.90;;;28.70;1.00;;;;;;5070301;28;20192;-68
2023/06/19 10:23:58;;;;;;;9.50;8.20;;;29.00;1.00;;;;;;5059456;28;20212;-68
2023/06/19 10:26:34;;;;;;;9.30;8.40;;;29.70;1.00;;;;;;5068131;28;20196;-67
2023/06/19 10:29:00;;;;;;;12.20;10.40;;;30.20;98.10;;;;;;5071090;28;20184;-67
2023/06/19 10:31:28;;;;;;;14.48;11.55;;;30.20;1.00;;;;;;5071414;28;20193;-68
2023/06/19 10:33:54;;;;;;;13.18;9.57;;;30.50;1.00;;;;;;5073890;28;20173;-67
2023/06/19 10:36:22;;;;;;;13.02;9.52;;;30.40;1.00;;;;;;5073521;28;20223;-67
2023/06/19 10:38:49;;;;;;;11.20;8.90;;;30.00;1.00;;;;;;5073464;28;20643;-67
2023/06/19 10:41:25;;;;;;;10.73;9.00;;;30.40;1.00;;;;;;5071998;28;20287;-67
2023/06/19 10:44:04;;;;;;;10.35;8.32;;;30.60;99.90;;;;;;5070648;28;20652;-68
2023/06/19 10:46:38;;;;;;;9.45;8.63;;;31.10;99.90;;;;;;5071593;28;20203;-68
2023/06/19 10:49:07;;;;;;;11.27;8.27;;;32.00;1.00;;;;;;5067887;28;21646;-66
2023/06/19 10:51:41;;;;;;;12.07;8.43;;;32.10;1.00;;;;;;5074025;28;20177;-67
2023/06/19 10:54:07;;;;;;;11.63;8.18;;;32.20;1.00;;;;;;5072149;28;20180;-68
2023/06/19 10:56:33;;;;;;;14.35;8.60;;;32.00;1.00;;;;;;5070394;28;20271;-68
2023/06/19 10:59:09;;;;;;;15.65;9.75;;;31.90;1.00;;;;;;5068248;28;20215;-66
2023/06/19 11:01:40;;;;;;;10.35;9.18;;;30.90;5.90;;;;;;5050481;28;20184;-68
2023/06/19 11:04:11;;;;;;;8.88;7.97;;;31.20;99.90;;;;;;5072596;28;20185;-67
2023/06/19 11:06:38;;;;;;;9.93;8.90;;;31.50;1.00;;;;;;5070912;28;20248;-67
2023/06/19 11:09:06;;;;;;;8.93;8.13;;;30.10;99.90;;;;;;5071170;28;20176;-68
2023/06/19 11:11:42;;;;;;;8.75;7.80;;;30.50;28.00;;;;;;5073067;28;20169;-67
2023/06/19 11:14:09;;;;;;;12.45;8.63;;;30.70;30.00;;;;;;5069198;28;20309;-67
2023/06/19 11:16:37;;;;;;;11.27;7.70;;;31.40;1.00;;;;;;5069639;28;20185;-68
2023/06/19 11:19:03;;;;;;;9.93;8.25;;;31.60;1.00;;;;;;5071037;28;20267;-67
2023/06/19 11:21:30;;;;;;;11.60;8.88;;;31.70;1.00;;;;;;5057213;28;20906;-66
2023/06/19 11:23:58;;;;;;;10.95;9.13;;;31.60;1.00;;;;;;5072915;28;20225;-67
2023/06/19 11:26:24;;;;;;;16.45;9.73;;;31.30;1.00;;;;;;5070851;28;20215;-68
2023/06/19 11:28:50;;;;;;;10.48;9.43;;;30.90;18.10;;;;;;5058616;28;20605;-68
2023/06/19 11:31:16;;;;;;;10.40;8.65;;;31.20;1.00;;;;;;5071080;28;20689;-68
2023/06/19 11:33:41;;;;;;;16.38;9.55;;;30.70;16.70;;;;;;5073151;28;20638;-68
2023/06/19 11:36:08;;;;;;;13.13;10.25;;;30.70;1.00;;;;;;5072461;28;20247;-67
2023/06/19 11:38:38;;;;;;;14.20;11.52;;;30.10;1.00;;;;;;5070412;28;20188;-67
2023/06/19 11:41:03;;;;;;;13.98;11.07;;;29.70;1.00;;;;;;5072914;28;20262;-68
2023/06/19 11:43:31;;;;;;;13.00;11.07;;;29.80;99.90;;;;;;5069950;28;20608;-67
2023/06/19 11:46:10;;;;;;;12.60;11.30;;;30.40;1.00;;;;;;5073266;28;20255;-66
2023/06/19 11:48:38;;;;;;;13.65;10.82;;;30.80;99.90;;;;;;5067949;28;20207;-66
2023/06/19 11:51:04;;;;;;;14.73;9.40;;;31.20;1.00;;;;;;5069935;28;20546;-67
2023/06/19 11:53:30;;;;;;;12.95;8.75;;;31.40;1.00;;;;;;5070674;28;20173;-67
2023/06/19 11:55:56;;;;;;;13.52;9.50;;;31.30;1.00;;;;;;5072516;28;20657;-67
2023/06/19 11:58:22;;;;;;;8.93;7.53;;;31.10;1.00;;;;;;5070833;28;20190;-66
2023/06/19 12:00:48;;;;;;;10.30;8.13;;;30.50;1.00;;;;;;5070721;28;20267;-65
2023/06/19 12:03:14;;;;;;;11.18;8.40;;;30.40;1.00;;;;;;5071357;28;20220;-67
2023/06/19 12:05:40;;;;;;;9.98;7.65;;;29.50;1.00;;;;;;5071673;28;20211;-65
2023/06/19 12:08:06;;;;;;;10.63;8.68;;;28.70;1.00;;;;;;5071585;28;20220;-66
2023/06/19 12:10:33;;;;;;;9.43;8.52;;;28.20;99.90;;;;;;5070185;28;20187;-67
2023/06/19 12:12:58;;;;;;;10.02;8.70;;;28.30;1.00;;;;;;5069495;28;20287;-66
2023/06/19 12:15:24;;;;;;;10.82;9.18;;;27.80;99.90;;;;;;5070992;28;20638;-66
2023/06/19 12:17:51;;;;;;;9.68;8.45;;;27.90;1.00;;;;;;5066205;28;20181;-66
2023/06/19 12:20:17;;;;;;;14.43;9.18;;;27.40;1.00;;;;;;5060267;28;20652;-66
2023/06/19 12:22:43;;;;;;;9.85;8.27;;;27.60;1.00;;;;;;5071603;28;20231;-66
2023/06/19 12:25:09;;;;;;;9.80;8.65;;;27.90;99.90;;;;;;5069685;28;20238;-65
2023/06/19 12:27:34;;;;;;;10.65;7.97;;;27.90;99.90;;;;;;5066547;28;20197;-66
2023/06/19 12:30:00;;;;;;;33.88;10.13;;;28.00;99.90;;;;;;5047466;28;20678;-66
2023/06/19 12:32:26;;;;;;;11.95;8.75;;;28.40;99.90;;;;;;5062313;28;20180;-66
2023/06/19 12:34:53;;;;;;;9.27;8.35;;;28.70;1.00;;;;;;5069140;28;20644;-67
2023/06/19 12:37:20;;;;;;;16.10;11.48;;;28.40;1.00;;;;;;5069863;28;20224;-66
2023/06/19 12:39:46;;;;;;;15.25;9.82;;;28.50;1.00;;;;;;5070431;28;20176;-66
2023/06/19 12:42:12;;;;;;;9.10;8.20;;;28.30;1.00;;;;;;5070191;28;20699;-66